KHUL/HUL METAR and TAF weather

Enter ICAO airport designator
Station Type Date Time Source
KHUL METAR 2024/04/18 06:53 UTC NOAA

KHUL 180653Z AUTO 00000KT 10SM CLR M03/M04 A3020 RMK AO2 SLP234 T10281044


Station Type Date Time Source
KHUL Decoded METAR 2024/04/18 06:53 UTC NOAA

HOULTON INT'L AIRPORT, ME, United States (KHUL) 46-07N 067-48W 150M
Apr 18, 2024 - 02:53 AM EDT / 2024.04.18 0653 UTC
Wind: Calm:0
Visibility: 10 mile(s):0
Sky conditions: clear
Temperature: 27.0 F (-2.8 C)
Dew Point: 24.1 F (-4.4 C)
Relative Humidity: 88%
Pressure (altimeter): 30.2 in. Hg (1022 hPa)
ob: KHUL 180653Z AUTO 00000KT 10SM CLR M03/M04 A3020 RMK AO2 SLP234 T10281044
cycle: 7

Station Type Date Time Source
KHUL TAF 2024/04/18 06:30 UTC NOAA